sensor_id;sensor_type;location;lat;lon;timestamp;temperature;humidity
63313;DHT22;49442;45.640;13.812;2024-03-06T00:02:23;12.60;99.90
63313;DHT22;49442;45.640;13.812;2024-03-06T00:04:48;12.60;99.90
63313;DHT22;49442;45.640;13.812;2024-03-06T00:07:14;12.60;99.90
63313;DHT22;49442;45.640;13.812;2024-03-06T00:09:40;12.60;99.90
63313;DHT22;49442;45.640;13.812;2024-03-06T00:12:05;12.60;99.90
63313;DHT22;49442;45.640;13.812;2024-03-06T00:14:31;12.60;99.90
63313;DHT22;49442;45.640;13.812;2024-03-06T00:16:58;12.60;99.90
63313;DHT22;49442;45.640;13.812;2024-03-06T00:19:23;12.60;99.90
63313;DHT22;49442;45.640;13.812;2024-03-06T00:21:49;12.60;99.90
63313;DHT22;49442;45.640;13.812;2024-03-06T00:24:16;12.60;99.90
63313;DHT22;49442;45.640;13.812;2024-03-06T00:26:43;12.60;99.90
63313;DHT22;49442;45.640;13.812;2024-03-06T00:29:10;12.70;99.90
63313;DHT22;49442;45.640;13.812;2024-03-06T00:31:36;12.70;99.90
63313;DHT22;49442;45.640;13.812;2024-03-06T00:34:02;12.60;99.90
63313;DHT22;49442;45.640;13.812;2024-03-06T00:36:28;12.50;99.90
63313;DHT22;49442;45.640;13.812;2024-03-06T00:38:54;12.60;99.90
63313;DHT22;49442;45.640;13.812;2024-03-06T00:41:20;12.60;99.90
63313;DHT22;49442;45.640;13.812;2024-03-06T00:43:45;12.70;99.90
63313;DHT22;49442;45.640;13.812;2024-03-06T00:46:11;12.60;99.90
63313;DHT22;49442;45.640;13.812;2024-03-06T00:48:37;12.60;99.90
63313;DHT22;49442;45.640;13.812;2024-03-06T00:51:06;12.40;99.90
63313;DHT22;49442;45.640;13.812;2024-03-06T00:53:34;12.30;99.90
63313;DHT22;49442;45.640;13.812;2024-03-06T00:56:00;12.30;99.90
63313;DHT22;49442;45.640;13.812;2024-03-06T00:58:26;12.20;99.90
63313;DHT22;49442;45.640;13.812;2024-03-06T01:00:52;12.10;99.90
63313;DHT22;49442;45.640;13.812;2024-03-06T01:03:17;12.10;99.90
63313;DHT22;49442;45.640;13.812;2024-03-06T01:05:43;12.00;99.90
63313;DHT22;49442;45.640;13.812;2024-03-06T01:08:09;12.00;99.90
63313;DHT22;49442;45.640;13.812;2024-03-06T01:10:34;12.00;99.90
63313;DHT22;49442;45.640;13.812;2024-03-06T01:13:01;12.00;99.90
63313;DHT22;49442;45.640;13.812;2024-03-06T01:15:26;12.10;99.90
63313;DHT22;49442;45.640;13.812;2024-03-06T01:17:52;12.20;99.90
63313;DHT22;49442;45.640;13.812;2024-03-06T01:20:18;12.30;99.90
63313;DHT22;49442;45.640;13.812;2024-03-06T01:22:44;12.30;99.90
63313;DHT22;49442;45.640;13.812;2024-03-06T01:25:12;12.30;99.90
63313;DHT22;49442;45.640;13.812;2024-03-06T01:27:37;12.40;99.90
63313;DHT22;49442;45.640;13.812;2024-03-06T01:30:03;12.30;99.90
63313;DHT22;49442;45.640;13.812;2024-03-06T01:32:29;12.30;99.90
63313;DHT22;49442;45.640;13.812;2024-03-06T01:34:55;12.20;99.90
63313;DHT22;49442;45.640;13.812;2024-03-06T01:37:21;12.30;99.90
63313;DHT22;49442;45.640;13.812;2024-03-06T01:39:46;12.20;99.90
63313;DHT22;49442;45.640;13.812;2024-03-06T01:42:12;12.20;99.90
63313;DHT22;49442;45.640;13.812;2024-03-06T01:44:38;12.20;99.90
63313;DHT22;49442;45.640;13.812;2024-03-06T01:47:03;12.20;99.90
63313;DHT22;49442;45.640;13.812;2024-03-06T01:49:29;12.10;99.90
63313;DHT22;49442;45.640;13.812;2024-03-06T01:51:57;12.10;99.90
63313;DHT22;49442;45.640;13.812;2024-03-06T01:54:24;12.10;99.90
63313;DHT22;49442;45.640;13.812;2024-03-06T01:56:50;12.10;99.90
63313;DHT22;49442;45.640;13.812;2024-03-06T01:59:18;12.00;99.90
63313;DHT22;49442;45.640;13.812;2024-03-06T02:01:45;12.00;99.90
63313;DHT22;49442;45.640;13.812;2024-03-06T02:04:12;11.90;99.90
63313;DHT22;49442;45.640;13.812;2024-03-06T02:06:41;12.00;99.90
63313;DHT22;49442;45.640;13.812;2024-03-06T02:09:07;12.00;99.90
63313;DHT22;49442;45.640;13.812;2024-03-06T02:11:36;12.00;99.90
63313;DHT22;49442;45.640;13.812;2024-03-06T02:14:02;11.90;99.90
63313;DHT22;49442;45.640;13.812;2024-03-06T02:16:28;11.90;99.90
63313;DHT22;49442;45.640;13.812;2024-03-06T02:18:55;11.90;99.90
63313;DHT22;49442;45.640;13.812;2024-03-06T02:21:23;11.80;99.90
63313;DHT22;49442;45.640;13.812;2024-03-06T02:23:50;11.80;99.90
63313;DHT22;49442;45.640;13.812;2024-03-06T02:26:20;11.80;99.90
63313;DHT22;49442;45.640;13.812;2024-03-06T02:28:49;11.70;99.90
63313;DHT22;49442;45.640;13.812;2024-03-06T02:31:19;11.70;99.90
63313;DHT22;49442;45.640;13.812;2024-03-06T02:33:46;11.70;99.90
63313;DHT22;49442;45.640;13.812;2024-03-06T02:36:13;11.70;99.90
63313;DHT22;49442;45.640;13.812;2024-03-06T02:38:39;11.70;99.90
63313;DHT22;49442;45.640;13.812;2024-03-06T02:41:06;11.80;99.90
63313;DHT22;49442;45.640;13.812;2024-03-06T02:43:35;11.80;99.90
63313;DHT22;49442;45.640;13.812;2024-03-06T02:46:01;11.80;99.90
63313;DHT22;49442;45.640;13.812;2024-03-06T02:48:27;11.80;99.90
63313;DHT22;49442;45.640;13.812;2024-03-06T02:50:53;11.80;99.90
63313;DHT22;49442;45.640;13.812;2024-03-06T02:53:18;11.90;99.90
63313;DHT22;49442;45.640;13.812;2024-03-06T02:55:44;11.80;99.90
63313;DHT22;49442;45.640;13.812;2024-03-06T02:58:10;11.80;99.90
63313;DHT22;49442;45.640;13.812;2024-03-06T03:00:35;11.70;99.90
63313;DHT22;49442;45.640;13.812;2024-03-06T03:03:02;11.70;99.90
63313;DHT22;49442;45.640;13.812;2024-03-06T03:05:28;11.70;99.90
63313;DHT22;49442;45.640;13.812;2024-03-06T03:07:53;11.60;99.90
63313;DHT22;49442;45.640;13.812;2024-03-06T03:10:19;11.60;99.90
63313;DHT22;49442;45.640;13.812;2024-03-06T03:12:45;11.60;99.90
63313;DHT22;49442;45.640;13.812;2024-03-06T03:15:11;11.50;99.90
63313;DHT22;49442;45.640;13.812;2024-03-06T03:17:36;11.50;99.90
63313;DHT22;49442;45.640;13.812;2024-03-06T03:20:03;11.50;99.90
63313;DHT22;49442;45.640;13.812;2024-03-06T03:22:41;11.50;99.90
63313;DHT22;49442;45.640;13.812;2024-03-06T03:25:11;11.50;99.90
63313;DHT22;49442;45.640;13.812;2024-03-06T03:27:40;11.60;99.90
63313;DHT22;49442;45.640;13.812;2024-03-06T03:30:09;11.50;99.90
63313;DHT22;49442;45.640;13.812;2024-03-06T03:32:35;11.60;99.90
63313;DHT22;49442;45.640;13.812;2024-03-06T03:35:01;11.50;99.90
63313;DHT22;49442;45.640;13.812;2024-03-06T03:37:26;11.60;99.90
63313;DHT22;49442;45.640;13.812;2024-03-06T03:39:53;11.50;99.90
63313;DHT22;49442;45.640;13.812;2024-03-06T03:42:20;11.50;99.90
63313;DHT22;49442;45.640;13.812;2024-03-06T03:44:45;11.40;99.90
63313;DHT22;49442;45.640;13.812;2024-03-06T03:47:11;11.40;99.90
63313;DHT22;49442;45.640;13.812;2024-03-06T03:49:38;11.30;99.90
63313;DHT22;49442;45.640;13.812;2024-03-06T03:52:03;11.30;99.90
63313;DHT22;49442;45.640;13.812;2024-03-06T03:54:29;11.20;99.90
63313;DHT22;49442;45.640;13.812;2024-03-06T03:56:55;11.20;99.90
63313;DHT22;49442;45.640;13.812;2024-03-06T03:59:20;11.30;99.90
63313;DHT22;49442;45.640;13.812;2024-03-06T04:01:46;11.20;99.90
63313;DHT22;49442;45.640;13.812;2024-03-06T04:04:12;11.20;99.90
63313;DHT22;49442;45.640;13.812;2024-03-06T04:06:38;11.10;99.90
63313;DHT22;49442;45.640;13.812;2024-03-06T04:09:04;11.20;99.90
63313;DHT22;49442;45.640;13.812;2024-03-06T04:11:36;11.20;99.90
63313;DHT22;49442;45.640;13.812;2024-03-06T04:14:06;11.20;99.90
63313;DHT22;49442;45.640;13.812;2024-03-06T04:16:35;11.20;99.90
63313;DHT22;49442;45.640;13.812;2024-03-06T04:19:01;11.20;99.90
63313;DHT22;49442;45.640;13.812;2024-03-06T04:21:27;11.20;99.90
63313;DHT22;49442;45.640;13.812;2024-03-06T04:23:53;11.20;99.90
63313;DHT22;49442;45.640;13.812;2024-03-06T04:26:19;11.30;99.90
63313;DHT22;49442;45.640;13.812;2024-03-06T04:28:44;11.20;99.90
63313;DHT22;49442;45.640;13.812;2024-03-06T04:31:10;10.90;99.90
63313;DHT22;49442;45.640;13.812;2024-03-06T04:33:36;10.80;99.90
63313;DHT22;49442;45.640;13.812;2024-03-06T04:36:03;10.70;99.90
63313;DHT22;49442;45.640;13.812;2024-03-06T04:38:31;10.60;99.90
63313;DHT22;49442;45.640;13.812;2024-03-06T04:40:57;10.50;99.90
63313;DHT22;49442;45.640;13.812;2024-03-06T04:43:23;10.50;99.90
63313;DHT22;49442;45.640;13.812;2024-03-06T04:45:48;10.40;99.90
63313;DHT22;49442;45.640;13.812;2024-03-06T04:48:14;10.40;99.90
63313;DHT22;49442;45.640;13.812;2024-03-06T04:50:40;10.30;99.90
63313;DHT22;49442;45.640;13.812;2024-03-06T04:53:07;10.20;99.90
63313;DHT22;49442;45.640;13.812;2024-03-06T04:55:32;10.30;99.90
63313;DHT22;49442;45.640;13.812;2024-03-06T04:57:58;10.30;99.90
63313;DHT22;49442;45.640;13.812;2024-03-06T05:00:24;10.20;99.90
63313;DHT22;49442;45.640;13.812;2024-03-06T05:02:50;10.20;99.90
63313;DHT22;49442;45.640;13.812;2024-03-06T05:05:15;10.20;99.90
63313;DHT22;49442;45.640;13.812;2024-03-06T05:07:41;10.20;99.90
63313;DHT22;49442;45.640;13.812;2024-03-06T05:10:07;10.20;99.90
63313;DHT22;49442;45.640;13.812;2024-03-06T05:12:34;10.20;99.90
63313;DHT22;49442;45.640;13.812;2024-03-06T05:15:00;10.20;99.90
63313;DHT22;49442;45.640;13.812;2024-03-06T05:17:25;10.20;99.90
63313;DHT22;49442;45.640;13.812;2024-03-06T05:19:51;10.10;99.90
63313;DHT22;49442;45.640;13.812;2024-03-06T05:22:17;10.10;99.90
63313;DHT22;49442;45.640;13.812;2024-03-06T05:24:43;10.10;99.90
63313;DHT22;49442;45.640;13.812;2024-03-06T05:27:10;10.20;99.90
63313;DHT22;49442;45.640;13.812;2024-03-06T05:29:38;10.20;99.90
63313;DHT22;49442;45.640;13.812;2024-03-06T05:32:05;10.20;99.90
63313;DHT22;49442;45.640;13.812;2024-03-06T05:34:32;10.20;99.90
63313;DHT22;49442;45.640;13.812;2024-03-06T05:36:59;10.20;99.90
63313;DHT22;49442;45.640;13.812;2024-03-06T05:39:25;10.20;99.90
63313;DHT22;49442;45.640;13.812;2024-03-06T05:41:50;10.20;99.90
63313;DHT22;49442;45.640;13.812;2024-03-06T05:44:16;10.20;99.90
63313;DHT22;49442;45.640;13.812;2024-03-06T05:46:42;10.30;99.90
63313;DHT22;49442;45.640;13.812;2024-03-06T05:49:07;10.20;99.90
63313;DHT22;49442;45.640;13.812;2024-03-06T05:51:33;10.20;99.90
63313;DHT22;49442;45.640;13.812;2024-03-06T05:53:59;10.20;99.90
63313;DHT22;49442;45.640;13.812;2024-03-06T05:56:24;10.10;99.90
63313;DHT22;49442;45.640;13.812;2024-03-06T05:58:50;10.10;99.90
63313;DHT22;49442;45.640;13.812;2024-03-06T06:01:16;10.10;99.90
63313;DHT22;49442;45.640;13.812;2024-03-06T06:03:46;10.20;99.90
63313;DHT22;49442;45.640;13.812;2024-03-06T06:06:15;10.20;99.90
63313;DHT22;49442;45.640;13.812;2024-03-06T06:08:40;10.10;99.90
63313;DHT22;49442;45.640;13.812;2024-03-06T06:11:06;10.20;99.90
63313;DHT22;49442;45.640;13.812;2024-03-06T06:13:33;10.10;99.90
63313;DHT22;49442;45.640;13.812;2024-03-06T06:15:59;10.10;99.90
63313;DHT22;49442;45.640;13.812;2024-03-06T06:18:24;10.10;99.90
63313;DHT22;49442;45.640;13.812;2024-03-06T06:20:50;10.10;99.90
63313;DHT22;49442;45.640;13.812;2024-03-06T06:23:16;10.10;99.90
63313;DHT22;49442;45.640;13.812;2024-03-06T06:25:42;10.10;99.90
63313;DHT22;49442;45.640;13.812;2024-03-06T06:28:07;10.10;99.90
63313;DHT22;49442;45.640;13.812;2024-03-06T06:30:36;10.00;99.90
63313;DHT22;49442;45.640;13.812;2024-03-06T06:33:01;10.00;99.90
63313;DHT22;49442;45.640;13.812;2024-03-06T06:35:27;10.00;99.90
63313;DHT22;49442;45.640;13.812;2024-03-06T06:37:53;10.00;99.90
63313;DHT22;49442;45.640;13.812;2024-03-06T06:40:18;10.00;99.90
63313;DHT22;49442;45.640;13.812;2024-03-06T06:42:49;10.00;99.90
63313;DHT22;49442;45.640;13.812;2024-03-06T06:45:21;9.90;99.90
63313;DHT22;49442;45.640;13.812;2024-03-06T06:47:48;9.90;99.90
63313;DHT22;49442;45.640;13.812;2024-03-06T06:50:15;9.90;99.90
63313;DHT22;49442;45.640;13.812;2024-03-06T06:52:44;9.90;99.90
63313;DHT22;49442;45.640;13.812;2024-03-06T06:55:09;9.80;99.90
63313;DHT22;49442;45.640;13.812;2024-03-06T06:57:37;9.80;99.90
63313;DHT22;49442;45.640;13.812;2024-03-06T07:00:03;9.90;99.90
63313;DHT22;49442;45.640;13.812;2024-03-06T07:02:37;9.90;99.90
63313;DHT22;49442;45.640;13.812;2024-03-06T07:05:04;9.90;99.90
63313;DHT22;49442;45.640;13.812;2024-03-06T07:07:30;9.80;99.90
63313;DHT22;49442;45.640;13.812;2024-03-06T07:09:56;9.80;99.90
63313;DHT22;49442;45.640;13.812;2024-03-06T07:12:22;9.80;99.90
63313;DHT22;49442;45.640;13.812;2024-03-06T07:14:48;9.80;99.90
63313;DHT22;49442;45.640;13.812;2024-03-06T07:17:13;9.80;99.90
63313;DHT22;49442;45.640;13.812;2024-03-06T07:19:39;9.90;99.90
63313;DHT22;49442;45.640;13.812;2024-03-06T07:22:05;9.80;99.90
63313;DHT22;49442;45.640;13.812;2024-03-06T07:24:31;9.80;99.90
63313;DHT22;49442;45.640;13.812;2024-03-06T07:26:56;9.80;99.90
63313;DHT22;49442;45.640;13.812;2024-03-06T07:29:22;9.80;99.90
63313;DHT22;49442;45.640;13.812;2024-03-06T07:31:48;9.80;99.90
63313;DHT22;49442;45.640;13.812;2024-03-06T07:34:16;9.80;99.90
63313;DHT22;49442;45.640;13.812;2024-03-06T07:36:43;9.80;99.90
63313;DHT22;49442;45.640;13.812;2024-03-06T07:39:08;9.80;99.90
63313;DHT22;49442;45.640;13.812;2024-03-06T07:41:34;9.80;99.90
63313;DHT22;49442;45.640;13.812;2024-03-06T07:44:00;9.90;99.90
63313;DHT22;49442;45.640;13.812;2024-03-06T07:46:26;9.90;99.90
63313;DHT22;49442;45.640;13.812;2024-03-06T07:48:52;9.80;99.90
63313;DHT22;49442;45.640;13.812;2024-03-06T07:51:18;9.90;99.90
63313;DHT22;49442;45.640;13.812;2024-03-06T07:53:43;9.90;99.90
63313;DHT22;49442;45.640;13.812;2024-03-06T07:56:12;9.80;99.90
63313;DHT22;49442;45.640;13.812;2024-03-06T07:58:38;9.90;99.90
63313;DHT22;49442;45.640;13.812;2024-03-06T08:01:04;9.90;99.90
63313;DHT22;49442;45.640;13.812;2024-03-06T08:03:30;9.90;99.90
63313;DHT22;49442;45.640;13.812;2024-03-06T08:05:55;9.90;99.90
63313;DHT22;49442;45.640;13.812;2024-03-06T08:08:21;9.90;99.90
63313;DHT22;49442;45.640;13.812;2024-03-06T08:10:47;9.80;99.90
63313;DHT22;49442;45.640;13.812;2024-03-06T08:13:14;9.80;99.90
63313;DHT22;49442;45.640;13.812;2024-03-06T08:15:39;9.80;99.90
63313;DHT22;49442;45.640;13.812;2024-03-06T08:18:06;9.80;99.90
63313;DHT22;49442;45.640;13.812;2024-03-06T08:20:32;9.90;99.90
63313;DHT22;49442;45.640;13.812;2024-03-06T08:22:58;9.80;99.90
63313;DHT22;49442;45.640;13.812;2024-03-06T08:25:24;9.80;99.90
63313;DHT22;49442;45.640;13.812;2024-03-06T08:27:50;9.80;99.90
63313;DHT22;49442;45.640;13.812;2024-03-06T08:30:15;9.80;99.90
63313;DHT22;49442;45.640;13.812;2024-03-06T08:32:41;9.80;99.90
63313;DHT22;49442;45.640;13.812;2024-03-06T08:35:10;9.80;99.90
63313;DHT22;49442;45.640;13.812;2024-03-06T08:37:39;9.80;99.90
63313;DHT22;49442;45.640;13.812;2024-03-06T08:40:06;9.90;99.90
63313;DHT22;49442;45.640;13.812;2024-03-06T08:45:36;10.00;99.90
63313;DHT22;49442;45.640;13.812;2024-03-06T08:48:02;10.10;99.90
63313;DHT22;49442;45.640;13.812;2024-03-06T08:50:28;10.10;99.90
63313;DHT22;49442;45.640;13.812;2024-03-06T08:52:54;10.10;99.90
63313;DHT22;49442;45.640;13.812;2024-03-06T08:55:20;10.10;99.90
63313;DHT22;49442;45.640;13.812;2024-03-06T08:57:45;10.20;99.90
63313;DHT22;49442;45.640;13.812;2024-03-06T09:00:11;10.20;99.90
63313;DHT22;49442;45.640;13.812;2024-03-06T09:02:38;10.30;99.90
63313;DHT22;49442;45.640;13.812;2024-03-06T09:05:05;10.40;99.90
63313;DHT22;49442;45.640;13.812;2024-03-06T09:07:31;10.30;99.90
63313;DHT22;49442;45.640;13.812;2024-03-06T09:09:57;10.40;99.90
63313;DHT22;49442;45.640;13.812;2024-03-06T09:12:22;10.50;99.90
63313;DHT22;49442;45.640;13.812;2024-03-06T09:14:48;10.40;99.90
63313;DHT22;49442;45.640;13.812;2024-03-06T09:17:14;10.40;99.90
63313;DHT22;49442;45.640;13.812;2024-03-06T09:19:40;10.40;99.90
63313;DHT22;49442;45.640;13.812;2024-03-06T09:22:07;10.40;99.90
63313;DHT22;49442;45.640;13.812;2024-03-06T09:24:33;10.40;99.90
63313;DHT22;49442;45.640;13.812;2024-03-06T09:27:01;10.50;99.90
63313;DHT22;49442;45.640;13.812;2024-03-06T09:29:27;10.50;99.90
63313;DHT22;49442;45.640;13.812;2024-03-06T09:31:52;10.50;99.90
63313;DHT22;49442;45.640;13.812;2024-03-06T09:34:18;10.40;99.90
63313;DHT22;49442;45.640;13.812;2024-03-06T09:36:48;10.50;99.90
63313;DHT22;49442;45.640;13.812;2024-03-06T09:39:16;10.40;99.90
63313;DHT22;49442;45.640;13.812;2024-03-06T09:41:44;10.50;99.90
63313;DHT22;49442;45.640;13.812;2024-03-06T09:44:10;10.50;99.90
63313;DHT22;49442;45.640;13.812;2024-03-06T09:46:36;10.60;99.90
63313;DHT22;49442;45.640;13.812;2024-03-06T09:49:02;10.50;99.90
63313;DHT22;49442;45.640;13.812;2024-03-06T09:51:28;10.60;99.90
63313;DHT22;49442;45.640;13.812;2024-03-06T09:53:54;10.60;99.90
63313;DHT22;49442;45.640;13.812;2024-03-06T09:56:20;10.70;99.90
63313;DHT22;49442;45.640;13.812;2024-03-06T09:58:46;10.80;99.90
63313;DHT22;49442;45.640;13.812;2024-03-06T10:01:14;10.90;99.90
63313;DHT22;49442;45.640;13.812;2024-03-06T10:03:40;11.00;99.90
63313;DHT22;49442;45.640;13.812;2024-03-06T10:06:07;11.00;99.90
63313;DHT22;49442;45.640;13.812;2024-03-06T10:08:33;11.10;99.90
63313;DHT22;49442;45.640;13.812;2024-03-06T10:11:00;11.20;99.90
63313;DHT22;49442;45.640;13.812;2024-03-06T10:13:26;11.20;99.90
63313;DHT22;49442;45.640;13.812;2024-03-06T10:16:00;11.20;99.90
63313;DHT22;49442;45.640;13.812;2024-03-06T10:18:30;11.30;99.90
63313;DHT22;49442;45.640;13.812;2024-03-06T10:20:58;11.40;99.90
63313;DHT22;49442;45.640;13.812;2024-03-06T10:23:24;11.50;99.90
63313;DHT22;49442;45.640;13.812;2024-03-06T10:25:50;11.60;99.90
63313;DHT22;49442;45.640;13.812;2024-03-06T10:28:21;11.70;99.90
63313;DHT22;49442;45.640;13.812;2024-03-06T10:30:51;11.70;99.90
63313;DHT22;49442;45.640;13.812;2024-03-06T10:33:18;11.80;99.90
63313;DHT22;49442;45.640;13.812;2024-03-06T10:35:45;11.90;99.90
63313;DHT22;49442;45.640;13.812;2024-03-06T10:38:12;12.00;99.90
63313;DHT22;49442;45.640;13.812;2024-03-06T10:40:42;12.20;99.90
63313;DHT22;49442;45.640;13.812;2024-03-06T10:43:09;12.30;99.90
63313;DHT22;49442;45.640;13.812;2024-03-06T10:45:52;12.40;99.90
63313;DHT22;49442;45.640;13.812;2024-03-06T10:48:19;12.60;99.90
63313;DHT22;49442;45.640;13.812;2024-03-06T10:50:46;12.60;99.90
63313;DHT22;49442;45.640;13.812;2024-03-06T10:53:14;12.70;99.90
63313;DHT22;49442;45.640;13.812;2024-03-06T10:55:43;12.90;99.90
63313;DHT22;49442;45.640;13.812;2024-03-06T10:58:12;13.00;99.90
63313;DHT22;49442;45.640;13.812;2024-03-06T11:00:40;13.20;99.90
63313;DHT22;49442;45.640;13.812;2024-03-06T11:03:06;13.40;99.90
63313;DHT22;49442;45.640;13.812;2024-03-06T11:05:39;13.60;99.90
63313;DHT22;49442;45.640;13.812;2024-03-06T11:08:11;13.60;99.90
63313;DHT22;49442;45.640;13.812;2024-03-06T11:10:39;13.60;99.90
63313;DHT22;49442;45.640;13.812;2024-03-06T11:15:46;13.60;99.90
63313;DHT22;49442;45.640;13.812;2024-03-06T11:23:34;13.50;99.90
63313;DHT22;49442;45.640;13.812;2024-03-06T11:26:03;13.50;99.90
63313;DHT22;49442;45.640;13.812;2024-03-06T11:28:34;13.50;99.90
63313;DHT22;49442;45.640;13.812;2024-03-06T11:31:02;13.50;99.90
63313;DHT22;49442;45.640;13.812;2024-03-06T11:33:39;13.60;99.90
63313;DHT22;49442;45.640;13.812;2024-03-06T11:36:15;13.60;99.90
63313;DHT22;49442;45.640;13.812;2024-03-06T11:41:46;13.60;99.90
63313;DHT22;49442;45.640;13.812;2024-03-06T11:44:16;13.70;99.90
63313;DHT22;49442;45.640;13.812;2024-03-06T11:49:22;13.80;99.90
63313;DHT22;49442;45.640;13.812;2024-03-06T11:51:50;13.70;99.90
63313;DHT22;49442;45.640;13.812;2024-03-06T11:54:17;13.70;99.90
63313;DHT22;49442;45.640;13.812;2024-03-06T11:56:50;13.70;99.90
63313;DHT22;49442;45.640;13.812;2024-03-06T11:59:17;13.70;99.90
63313;DHT22;49442;45.640;13.812;2024-03-06T12:01:43;13.60;99.90
63313;DHT22;49442;45.640;13.812;2024-03-06T12:04:09;13.50;99.90
63313;DHT22;49442;45.640;13.812;2024-03-06T12:06:36;13.40;99.90
63313;DHT22;49442;45.640;13.812;2024-03-06T12:09:03;13.30;99.90
63313;DHT22;49442;45.640;13.812;2024-03-06T12:11:29;13.30;99.90
63313;DHT22;49442;45.640;13.812;2024-03-06T12:13:56;13.30;99.90
63313;DHT22;49442;45.640;13.812;2024-03-06T12:16:22;13.30;99.90
63313;DHT22;49442;45.640;13.812;2024-03-06T12:18:55;13.30;99.90
63313;DHT22;49442;45.640;13.812;2024-03-06T12:21:32;13.30;99.90
63313;DHT22;49442;45.640;13.812;2024-03-06T12:24:08;13.20;99.90
63313;DHT22;49442;45.640;13.812;2024-03-06T12:26:34;13.20;99.90
63313;DHT22;49442;45.640;13.812;2024-03-06T12:29:07;13.10;99.90
63313;DHT22;49442;45.640;13.812;2024-03-06T12:31:34;13.10;99.90
63313;DHT22;49442;45.640;13.812;2024-03-06T12:34:00;13.10;99.90
63313;DHT22;49442;45.640;13.812;2024-03-06T12:36:29;13.10;99.90
63313;DHT22;49442;45.640;13.812;2024-03-06T12:39:04;13.10;99.90
63313;DHT22;49442;45.640;13.812;2024-03-06T12:41:41;13.00;99.90
63313;DHT22;49442;45.640;13.812;2024-03-06T12:44:07;13.10;99.90
63313;DHT22;49442;45.640;13.812;2024-03-06T12:46:33;13.10;99.90
63313;DHT22;49442;45.640;13.812;2024-03-06T12:48:59;13.10;99.90
63313;DHT22;49442;45.640;13.812;2024-03-06T12:51:24;13.00;99.90
63313;DHT22;49442;45.640;13.812;2024-03-06T12:53:50;13.00;99.90
63313;DHT22;49442;45.640;13.812;2024-03-06T12:56:17;13.00;99.90
63313;DHT22;49442;45.640;13.812;2024-03-06T12:58:43;12.90;99.90
63313;DHT22;49442;45.640;13.812;2024-03-06T13:01:09;12.90;99.90
63313;DHT22;49442;45.640;13.812;2024-03-06T13:03:36;12.90;99.90
63313;DHT22;49442;45.640;13.812;2024-03-06T13:06:02;12.80;99.90
63313;DHT22;49442;45.640;13.812;2024-03-06T13:08:29;12.70;99.90
63313;DHT22;49442;45.640;13.812;2024-03-06T13:10:55;12.70;99.90
63313;DHT22;49442;45.640;13.812;2024-03-06T13:13:22;12.70;99.90
63313;DHT22;49442;45.640;13.812;2024-03-06T13:15:50;12.60;99.90
63313;DHT22;49442;45.640;13.812;2024-03-06T13:18:15;12.60;99.90
63313;DHT22;49442;45.640;13.812;2024-03-06T13:20:41;12.60;99.90
63313;DHT22;49442;45.640;13.812;2024-03-06T13:23:07;12.50;99.90
63313;DHT22;49442;45.640;13.812;2024-03-06T13:25:33;12.50;99.90
63313;DHT22;49442;45.640;13.812;2024-03-06T13:27:58;12.50;99.90
63313;DHT22;49442;45.640;13.812;2024-03-06T13:30:24;12.40;99.90
63313;DHT22;49442;45.640;13.812;2024-03-06T13:32:51;12.40;99.90
63313;DHT22;49442;45.640;13.812;2024-03-06T13:35:17;12.40;99.90
63313;DHT22;49442;45.640;13.812;2024-03-06T13:37:43;12.30;99.90
63313;DHT22;49442;45.640;13.812;2024-03-06T13:40:10;12.30;99.90
63313;DHT22;49442;45.640;13.812;2024-03-06T13:42:38;12.20;99.90
63313;DHT22;49442;45.640;13.812;2024-03-06T13:45:04;12.10;99.90
63313;DHT22;49442;45.640;13.812;2024-03-06T13:47:30;12.10;99.90
63313;DHT22;49442;45.640;13.812;2024-03-06T13:49:56;12.10;99.90
63313;DHT22;49442;45.640;13.812;2024-03-06T13:52:22;12.10;99.90
63313;DHT22;49442;45.640;13.812;2024-03-06T13:54:49;12.00;99.90
63313;DHT22;49442;45.640;13.812;2024-03-06T13:57:15;12.00;99.90
63313;DHT22;49442;45.640;13.812;2024-03-06T13:59:42;12.00;99.90
63313;DHT22;49442;45.640;13.812;2024-03-06T14:02:08;12.00;99.90
63313;DHT22;49442;45.640;13.812;2024-03-06T14:04:34;12.00;99.90
63313;DHT22;49442;45.640;13.812;2024-03-06T14:07:00;12.00;99.90
63313;DHT22;49442;45.640;13.812;2024-03-06T14:09:26;11.90;99.90
63313;DHT22;49442;45.640;13.812;2024-03-06T14:11:53;11.90;99.90
63313;DHT22;49442;45.640;13.812;2024-03-06T14:14:19;12.00;99.90
63313;DHT22;49442;45.640;13.812;2024-03-06T14:16:45;12.00;99.90
63313;DHT22;49442;45.640;13.812;2024-03-06T14:19:11;11.90;99.90
63313;DHT22;49442;45.640;13.812;2024-03-06T14:21:37;11.90;99.90
63313;DHT22;49442;45.640;13.812;2024-03-06T14:24:04;11.90;99.90
63313;DHT22;49442;45.640;13.812;2024-03-06T14:26:33;11.90;99.90
63313;DHT22;49442;45.640;13.812;2024-03-06T14:29:00;11.90;99.90
63313;DHT22;49442;45.640;13.812;2024-03-06T14:31:26;11.90;99.90
63313;DHT22;49442;45.640;13.812;2024-03-06T14:33:52;11.80;99.90
63313;DHT22;49442;45.640;13.812;2024-03-06T14:36:18;11.80;99.90
63313;DHT22;49442;45.640;13.812;2024-03-06T14:38:44;11.80;99.90
63313;DHT22;49442;45.640;13.812;2024-03-06T14:41:10;11.80;99.90
63313;DHT22;49442;45.640;13.812;2024-03-06T14:43:36;11.90;99.90
63313;DHT22;49442;45.640;13.812;2024-03-06T14:46:07;11.80;99.90
63313;DHT22;49442;45.640;13.812;2024-03-06T14:48:34;11.90;99.90
63313;DHT22;49442;45.640;13.812;2024-03-06T14:51:01;11.90;99.90
63313;DHT22;49442;45.640;13.812;2024-03-06T14:53:26;11.80;99.90
63313;DHT22;49442;45.640;13.812;2024-03-06T14:55:52;11.80;99.90
63313;DHT22;49442;45.640;13.812;2024-03-06T14:58:19;11.90;99.90
63313;DHT22;49442;45.640;13.812;2024-03-06T15:00:44;11.80;99.90
63313;DHT22;49442;45.640;13.812;2024-03-06T15:03:10;11.90;99.90
63313;DHT22;49442;45.640;13.812;2024-03-06T15:05:36;11.80;99.90
63313;DHT22;49442;45.640;13.812;2024-03-06T15:08:02;11.70;99.90
63313;DHT22;49442;45.640;13.812;2024-03-06T15:10:30;11.80;99.90
63313;DHT22;49442;45.640;13.812;2024-03-06T15:13:00;11.70;99.90
63313;DHT22;49442;45.640;13.812;2024-03-06T15:15:25;11.60;99.90
63313;DHT22;49442;45.640;13.812;2024-03-06T15:17:51;11.60;99.90
63313;DHT22;49442;45.640;13.812;2024-03-06T15:20:17;11.50;99.90
63313;DHT22;49442;45.640;13.812;2024-03-06T15:22:46;11.50;99.90
63313;DHT22;49442;45.640;13.812;2024-03-06T15:25:13;11.50;99.90
63313;DHT22;49442;45.640;13.812;2024-03-06T15:27:40;11.40;99.90
63313;DHT22;49442;45.640;13.812;2024-03-06T15:30:07;11.40;99.90
63313;DHT22;49442;45.640;13.812;2024-03-06T15:32:34;11.30;99.90